Time;durP1;ratioP1;P1;durP2;ratioP2;P2;SDS_P1;SDS_P2;PMS_P1;PMS_P2;Temp;Humidity;BMP_temperature;BMP_pressure;BME280_temperature;BME280_humidity;BME280_pressure;Samples;Min_cycle;Max_cycle;Signal;HPM_P1;HPM_P2
2022/09/16 00:01:45;;;;;;;3.40;3.20;;;13.20;99.90;;;;;;486143;244;28045;-68
2022/09/16 00:03:47;;;;;;;3.33;3.03;;;;;;;;;;486133;244;28141;-68
2022/09/16 00:05:48;;;;;;;3.00;2.80;;;13.30;99.90;;;;;;486172;243;26966;-68
2022/09/16 00:07:50;;;;;;;5.00;3.30;;;13.20;99.90;;;;;;486059;244;28173;-72
2022/09/16 00:09:51;;;;;;;3.67;3.37;;;13.20;99.90;;;;;;486105;244;28080;-68
2022/09/16 00:11:52;;;;;;;3.70;3.40;;;13.10;99.90;;;;;;486151;244;28085;-69
2022/09/16 00:13:55;;;;;;;4.00;3.60;;;;;;;;;;486090;244;28056;-68
2022/09/16 00:15:57;;;;;;;3.90;3.30;;;;;;;;;;486162;243;27358;-69
2022/09/16 00:18:00;;;;;;;3.10;2.87;;;;;;;;;;486099;243;26407;-69
2022/09/16 00:20:01;;;;;;;3.50;3.20;;;12.90;99.90;;;;;;486120;243;27476;-69
2022/09/16 00:22:02;;;;;;;3.47;3.17;;;12.90;99.90;;;;;;486137;244;28815;-70
2022/09/16 00:24:03;;;;;;;3.30;3.00;;;12.90;99.90;;;;;;486160;244;27924;-68
2022/09/16 00:26:05;;;;;;;3.33;3.13;;;12.70;99.90;;;;;;486048;244;28202;-70
2022/09/16 00:28:06;;;;;;;4.97;3.43;;;12.60;99.90;;;;;;486141;244;28298;-68
2022/09/16 00:30:07;;;;;;;3.50;3.30;;;12.50;99.90;;;;;;486101;244;28691;-68
2022/09/16 00:32:08;;;;;;;3.50;3.30;;;12.50;99.90;;;;;;486140;244;28802;-72
2022/09/16 00:34:10;;;;;;;4.33;3.70;;;12.60;99.90;;;;;;486149;244;28369;-68
2022/09/16 00:36:11;;;;;;;2.93;2.73;;;12.60;99.90;;;;;;486031;244;29100;-69
2022/09/16 00:38:12;;;;;;;3.60;3.30;;;12.60;99.90;;;;;;486081;244;28791;-69
2022/09/16 00:40:13;;;;;;;3.10;2.90;;;12.60;99.90;;;;;;486097;243;28833;-68
2022/09/16 00:42:15;;;;;;;5.37;2.90;;;12.60;99.90;;;;;;486117;244;28665;-71
2022/09/16 00:44:16;;;;;;;3.40;3.20;;;12.60;99.90;;;;;;486091;244;28119;-68
2022/09/16 00:46:17;;;;;;;3.10;2.90;;;12.60;99.90;;;;;;485949;244;28167;-69
2022/09/16 00:48:18;;;;;;;3.43;3.20;;;12.60;99.90;;;;;;486040;244;28032;-69
2022/09/16 00:50:20;;;;;;;3.50;3.30;;;12.50;99.90;;;;;;486090;244;27917;-68
2022/09/16 00:52:22;;;;;;;3.07;2.87;;;;;;;;;;486087;244;28128;-68
2022/09/16 00:54:23;;;;;;;3.60;3.40;;;12.40;99.90;;;;;;486145;244;27336;-69
2022/09/16 00:56:25;;;;;;;3.33;3.07;;;12.50;99.90;;;;;;486074;244;28417;-68
2022/09/16 00:58:26;;;;;;;4.60;3.80;;;12.40;99.90;;;;;;486181;244;27913;-69
2022/09/16 01:00:27;;;;;;;4.43;4.03;;;12.20;99.90;;;;;;486175;244;28210;-72
2022/09/16 01:02:28;;;;;;;4.30;3.90;;;12.10;99.90;;;;;;486135;244;28183;-67
2022/09/16 01:04:29;;;;;;;5.00;4.60;;;12.10;99.90;;;;;;486155;244;28524;-70
2022/09/16 01:06:31;;;;;;;4.07;3.77;;;12.10;99.90;;;;;;486044;244;28301;-68
2022/09/16 01:08:32;;;;;;;4.97;4.00;;;12.20;99.90;;;;;;486165;244;28154;-68
2022/09/16 01:10:33;;;;;;;5.17;4.20;;;12.30;99.90;;;;;;486161;244;28732;-70
2022/09/16 01:12:35;;;;;;;4.70;4.20;;;12.40;99.90;;;;;;486086;244;28840;-68
2022/09/16 01:14:54;;;;;;;4.37;4.00;;;12.40;99.90;;;;;;486102;244;28565;-69
2022/09/16 01:16:58;;;;;;;3.60;3.30;;;12.40;99.90;;;;;;486047;244;27952;-72
2022/09/16 01:18:58;;;;;;;3.77;3.33;;;12.40;99.90;;;;;;486096;244;28511;-69
2022/09/16 01:20:59;;;;;;;3.63;3.33;;;12.40;99.90;;;;;;486139;244;28373;-69
2022/09/16 01:23:00;;;;;;;3.37;3.07;;;12.40;99.90;;;;;;486098;244;29171;-69
2022/09/16 01:25:01;;;;;;;3.70;3.40;;;12.40;99.90;;;;;;486150;244;28723;-71
2022/09/16 01:27:03;;;;;;;4.13;3.80;;;12.40;99.90;;;;;;486064;244;28671;-69
2022/09/16 01:29:04;;;;;;;4.13;3.77;;;12.40;99.90;;;;;;486158;244;27974;-68
2022/09/16 01:31:05;;;;;;;4.90;3.70;;;12.40;99.90;;;;;;486156;244;28365;-68
2022/09/16 01:33:07;;;;;;;3.40;3.20;;;12.40;99.90;;;;;;486083;244;28495;-70
2022/09/16 01:35:08;;;;;;;8.70;3.50;;;12.30;99.90;;;;;;486169;244;28284;-72
2022/09/16 01:37:09;;;;;;;3.80;3.50;;;12.30;99.90;;;;;;486073;244;28366;-70
2022/09/16 01:39:10;;;;;;;3.63;3.33;;;12.30;99.90;;;;;;486121;244;28088;-69
2022/09/16 01:41:11;;;;;;;4.20;3.80;;;12.30;99.90;;;;;;486116;244;28280;-69
2022/09/16 01:43:13;;;;;;;3.63;3.33;;;12.30;99.90;;;;;;486094;244;28375;-68
2022/09/16 01:45:14;;;;;;;3.53;3.23;;;12.20;99.90;;;;;;486174;244;28871;-72
2022/09/16 01:47:17;;;;;;;3.70;3.40;;;12.20;99.90;;;;;;486104;244;28650;-68
2022/09/16 01:49:16;;;;;;;3.40;3.10;;;12.20;99.90;;;;;;485979;244;28750;-69
2022/09/16 01:51:18;;;;;;;3.70;3.43;;;12.20;99.90;;;;;;486113;243;28376;-69
2022/09/16 01:53:19;;;;;;;3.10;2.90;;;12.30;99.90;;;;;;489463;241;28357;-69
2022/09/16 01:55:20;;;;;;;3.67;3.40;;;12.40;99.90;;;;;;485288;243;28395;-70
2022/09/16 01:57:22;;;;;;;3.20;3.00;;;12.50;99.90;;;;;;474164;251;29670;-68
2022/09/16 01:59:23;;;;;;;4.27;3.10;;;12.50;99.90;;;;;;474168;249;28659;-68
2022/09/16 02:01:24;;;;;;;2.80;2.60;;;12.50;99.90;;;;;;474177;249;28882;-70
2022/09/16 02:03:25;;;;;;;3.23;3.03;;;12.50;99.90;;;;;;474260;249;28216;-68
2022/09/16 02:05:27;;;;;;;3.10;2.90;;;12.60;99.90;;;;;;474166;249;28519;-69
2022/09/16 02:07:28;;;;;;;3.30;3.10;;;12.50;99.90;;;;;;484482;241;28198;-68
2022/09/16 02:09:29;;;;;;;3.27;3.07;;;12.50;99.90;;;;;;489675;243;28340;-69
2022/09/16 02:11:31;;;;;;;2.97;2.80;;;12.50;99.90;;;;;;489635;242;28405;-71
2022/09/16 02:13:32;;;;;;;3.30;3.03;;;12.50;99.90;;;;;;489638;242;28603;-69
2022/09/16 02:15:33;;;;;;;3.53;3.03;;;12.60;99.90;;;;;;489587;242;28126;-68
2022/09/16 02:17:34;;;;;;;2.93;2.73;;;12.50;99.90;;;;;;489611;242;28399;-68
2022/09/16 02:19:35;;;;;;;3.00;2.80;;;12.50;99.90;;;;;;479274;241;28318;-68
2022/09/16 02:21:37;;;;;;;3.30;3.00;;;12.50;99.90;;;;;;476932;249;28428;-71
2022/09/16 02:23:38;;;;;;;3.20;2.90;;;12.50;99.90;;;;;;481998;245;29001;-69
2022/09/16 02:25:39;;;;;;;3.10;2.90;;;12.50;99.90;;;;;;485399;245;28628;-68
2022/09/16 02:27:41;;;;;;;3.00;2.80;;;12.60;99.90;;;;;;485356;245;30080;-68
2022/09/16 02:29:42;;;;;;;4.23;3.43;;;12.60;99.90;;;;;;485457;245;28913;-68
2022/09/16 02:31:43;;;;;;;3.23;2.93;;;12.60;99.90;;;;;;485412;245;28725;-70
2022/09/16 02:33:44;;;;;;;3.63;3.43;;;12.70;99.90;;;;;;485438;245;28411;-69
2022/09/16 02:35:47;;;;;;;3.17;2.97;;;12.70;99.90;;;;;;485450;245;28362;-68
2022/09/16 02:37:47;;;;;;;3.20;3.00;;;12.60;99.90;;;;;;485310;245;28318;-69
2022/09/16 02:39:48;;;;;;;3.13;2.93;;;12.60;99.90;;;;;;485493;245;28007;-69
2022/09/16 02:41:49;;;;;;;3.50;3.20;;;12.60;99.90;;;;;;485477;245;28830;-70
2022/09/16 02:43:51;;;;;;;3.43;3.23;;;12.60;99.90;;;;;;485433;245;28515;-68
2022/09/16 02:45:52;;;;;;;3.20;3.00;;;12.60;99.90;;;;;;485448;245;28578;-69
2022/09/16 02:47:53;;;;;;;2.77;2.57;;;12.60;99.90;;;;;;485357;245;29808;-68
2022/09/16 02:49:54;;;;;;;2.90;2.70;;;12.60;99.90;;;;;;485487;245;29213;-69
2022/09/16 02:51:56;;;;;;;3.30;3.10;;;12.60;99.90;;;;;;485475;245;28761;-69
2022/09/16 02:53:57;;;;;;;3.80;3.50;;;12.60;99.90;;;;;;485415;245;28516;-69
2022/09/16 02:55:58;;;;;;;3.07;2.87;;;12.60;99.90;;;;;;485455;245;28109;-68
2022/09/16 02:57:59;;;;;;;3.33;3.13;;;12.60;99.90;;;;;;485325;245;28706;-68
2022/09/16 03:00:01;;;;;;;3.43;3.20;;;12.50;99.90;;;;;;485485;245;28087;-69
2022/09/16 03:02:02;;;;;;;2.97;2.77;;;12.50;99.90;;;;;;485434;245;28505;-71
2022/09/16 03:04:03;;;;;;;3.30;3.07;;;12.50;99.90;;;;;;485338;245;28532;-68
2022/09/16 03:06:04;;;;;;;4.97;2.90;;;12.60;99.90;;;;;;485393;245;28811;-68
2022/09/16 03:08:06;;;;;;;3.33;3.03;;;12.60;99.90;;;;;;485375;245;29203;-68
2022/09/16 03:10:07;;;;;;;3.30;3.00;;;12.60;99.90;;;;;;485499;245;28396;-69
2022/09/16 03:12:08;;;;;;;3.57;3.20;;;12.60;99.90;;;;;;485459;245;28782;-69
2022/09/16 03:14:09;;;;;;;3.10;2.87;;;12.60;99.90;;;;;;485395;245;28645;-69
2022/09/16 03:16:11;;;;;;;3.37;2.87;;;12.60;99.90;;;;;;485362;245;28102;-70
2022/09/16 03:18:12;;;;;;;3.20;3.00;;;12.60;99.90;;;;;;485484;245;28488;-68
2022/09/16 03:20:13;;;;;;;3.10;2.90;;;12.60;99.90;;;;;;485422;245;28769;-69
2022/09/16 03:22:14;;;;;;;3.23;3.03;;;12.60;99.90;;;;;;485480;245;28908;-69
2022/09/16 03:24:17;;;;;;;3.57;3.27;;;;;;;;;;485409;245;28450;-68
2022/09/16 03:26:18;;;;;;;3.73;3.00;;;12.50;99.90;;;;;;485403;245;26663;-72
2022/09/16 03:28:22;;;;;;;3.77;3.20;;;;;;;;;;485473;245;27965;-69
2022/09/16 03:30:22;;;;;;;4.03;3.03;;;12.50;99.90;;;;;;485320;245;26884;-68
2022/09/16 03:32:23;;;;;;;3.23;2.93;;;12.40;99.90;;;;;;485435;245;28695;-68
2022/09/16 03:34:24;;;;;;;3.40;3.17;;;12.50;99.90;;;;;;485399;245;28519;-71
2022/09/16 03:36:26;;;;;;;3.37;3.07;;;12.50;99.90;;;;;;485379;245;29538;-69
2022/09/16 03:38:27;;;;;;;3.60;3.30;;;12.50;99.90;;;;;;485454;245;28331;-69
2022/09/16 03:40:28;;;;;;;3.43;3.20;;;12.50;99.90;;;;;;485411;245;28391;-69
2022/09/16 03:42:29;;;;;;;3.10;2.90;;;12.50;99.90;;;;;;485489;245;28082;-69
2022/09/16 03:44:31;;;;;;;3.67;3.37;;;12.50;99.90;;;;;;485469;245;28447;-71
2022/09/16 03:46:32;;;;;;;2.97;2.77;;;12.50;99.90;;;;;;485392;245;28581;-69
2022/09/16 03:48:33;;;;;;;8.47;3.23;;;12.50;99.90;;;;;;485465;245;28878;-70
2022/09/16 03:50:34;;;;;;;4.20;3.10;;;12.50;99.90;;;;;;485441;245;28540;-69
2022/09/16 03:52:36;;;;;;;3.53;3.23;;;12.50;99.90;;;;;;485492;245;28407;-69
2022/09/16 03:54:37;;;;;;;3.13;2.93;;;12.50;99.90;;;;;;485509;245;29021;-70
2022/09/16 03:56:38;;;;;;;3.10;2.90;;;12.50;99.90;;;;;;485353;245;28861;-68
2022/09/16 03:58:39;;;;;;;6.33;2.70;;;12.50;99.90;;;;;;485486;245;28633;-69
2022/09/16 04:00:41;;;;;;;3.43;3.20;;;12.50;99.90;;;;;;485450;245;28129;-68
2022/09/16 04:02:42;;;;;;;3.70;2.93;;;12.50;99.90;;;;;;485482;245;28585;-71
2022/09/16 04:04:43;;;;;;;3.40;2.80;;;12.50;99.90;;;;;;485465;245;28587;-70
2022/09/16 04:06:44;;;;;;;3.10;2.90;;;12.50;99.90;;;;;;485366;245;28064;-69
2022/09/16 04:08:46;;;;;;;3.23;3.03;;;12.50;99.90;;;;;;485496;245;28462;-69
2022/09/16 04:10:48;;;;;;;3.10;2.80;;;12.50;99.90;;;;;;485438;245;28256;-69
2022/09/16 04:12:48;;;;;;;3.00;2.80;;;12.50;99.90;;;;;;485476;245;28526;-69
2022/09/16 04:14:49;;;;;;;3.97;2.93;;;12.50;99.90;;;;;;485511;245;28568;-70
2022/09/16 04:16:51;;;;;;;4.60;3.00;;;12.50;99.90;;;;;;485381;245;29339;-69
2022/09/16 04:18:52;;;;;;;3.33;2.97;;;12.60;99.90;;;;;;485497;245;29387;-69
2022/09/16 04:20:53;;;;;;;2.87;2.67;;;12.60;99.90;;;;;;485503;245;30015;-69
2022/09/16 04:22:54;;;;;;;3.10;2.90;;;12.50;99.90;;;;;;485502;245;28853;-69
2022/09/16 04:24:56;;;;;;;3.47;3.20;;;12.50;99.90;;;;;;485502;245;28454;-71
2022/09/16 04:26:57;;;;;;;4.40;3.17;;;12.30;99.90;;;;;;485369;245;28526;-68
2022/09/16 04:28:58;;;;;;;4.13;2.87;;;12.40;99.90;;;;;;485472;245;28106;-69
2022/09/16 04:31:00;;;;;;;3.37;3.17;;;12.40;99.90;;;;;;485470;244;28437;-69
2022/09/16 04:33:01;;;;;;;4.00;3.00;;;12.50;99.90;;;;;;485446;245;28407;-69
2022/09/16 04:35:02;;;;;;;3.37;3.07;;;12.50;99.90;;;;;;485456;245;28220;-69
2022/09/16 04:37:03;;;;;;;4.30;3.27;;;12.40;99.90;;;;;;485342;245;28328;-68
2022/09/16 04:39:05;;;;;;;3.10;2.90;;;12.40;99.90;;;;;;485470;245;28579;-69
2022/09/16 04:41:06;;;;;;;3.10;2.90;;;12.40;99.90;;;;;;485469;245;29466;-68
2022/09/16 04:43:08;;;;;;;3.27;3.07;;;12.40;99.90;;;;;;485434;245;28876;-68
2022/09/16 04:45:08;;;;;;;3.43;3.23;;;12.40;99.90;;;;;;485451;245;29004;-70
2022/09/16 04:47:10;;;;;;;3.27;3.07;;;12.30;99.90;;;;;;485380;245;28987;-69
2022/09/16 04:49:14;;;;;;;3.07;2.87;;;12.30;99.90;;;;;;485433;245;28467;-69
2022/09/16 04:51:12;;;;;;;3.93;3.57;;;12.40;99.90;;;;;;485291;243;28600;-69
2022/09/16 04:53:13;;;;;;;3.20;3.00;;;12.40;99.90;;;;;;485440;245;28826;-69
2022/09/16 04:55:15;;;;;;;3.77;3.40;;;12.40;99.90;;;;;;485482;245;28238;-70
2022/09/16 04:57:16;;;;;;;3.60;3.30;;;12.40;99.90;;;;;;485420;245;28338;-69
2022/09/16 04:59:17;;;;;;;3.70;3.40;;;12.30;99.90;;;;;;485402;245;28651;-69
2022/09/16 05:01:18;;;;;;;3.37;3.17;;;12.30;99.90;;;;;;485827;241;29249;-72
2022/09/16 05:03:20;;;;;;;3.80;3.60;;;12.20;99.90;;;;;;490043;242;28443;-69
2022/09/16 05:05:21;;;;;;;3.67;3.37;;;12.20;99.90;;;;;;490296;242;28504;-69
2022/09/16 05:07:22;;;;;;;5.00;3.70;;;12.20;99.90;;;;;;490195;242;28534;-69
2022/09/16 05:09:23;;;;;;;10.67;4.23;;;12.10;99.90;;;;;;490225;242;28862;-69
2022/09/16 05:11:25;;;;;;;3.43;3.23;;;12.10;99.90;;;;;;490317;242;28877;-72
2022/09/16 05:13:26;;;;;;;3.97;3.50;;;12.10;99.90;;;;;;490267;242;28992;-69
2022/09/16 05:15:27;;;;;;;3.43;3.23;;;12.10;99.90;;;;;;490213;242;28618;-69
2022/09/16 05:17:28;;;;;;;3.57;3.33;;;12.10;99.90;;;;;;490227;242;28840;-68
2022/09/16 05:19:30;;;;;;;3.57;3.33;;;12.10;99.90;;;;;;490217;242;29029;-69
2022/09/16 05:21:31;;;;;;;3.60;3.30;;;12.10;99.90;;;;;;490322;242;28420;-71
2022/09/16 05:23:32;;;;;;;4.03;3.17;;;12.10;99.90;;;;;;490284;242;28886;-69
2022/09/16 05:25:34;;;;;;;3.70;3.40;;;12.10;99.90;;;;;;490183;242;28925;-69
2022/09/16 05:27:35;;;;;;;3.30;3.10;;;12.20;99.90;;;;;;490249;242;29506;-69
2022/09/16 05:29:36;;;;;;;3.67;3.43;;;12.20;99.90;;;;;;490332;242;28804;-69
2022/09/16 05:31:37;;;;;;;4.83;3.73;;;12.30;99.90;;;;;;490229;242;28884;-70
2022/09/16 05:33:39;;;;;;;3.80;3.50;;;12.30;99.90;;;;;;490320;242;28351;-68
2022/09/16 05:35:40;;;;;;;3.20;2.97;;;12.40;99.90;;;;;;490270;241;28295;-69
2022/09/16 05:37:41;;;;;;;3.30;3.00;;;12.40;99.90;;;;;;490175;242;28172;-69
2022/09/16 05:39:43;;;;;;;3.23;3.03;;;12.40;99.90;;;;;;490346;242;28174;-69
2022/09/16 05:41:44;;;;;;;3.00;2.80;;;12.40;99.90;;;;;;490245;242;28339;-70
2022/09/16 05:43:45;;;;;;;3.20;2.90;;;12.30;99.90;;;;;;490273;242;28547;-69
2022/09/16 05:45:46;;;;;;;3.60;3.30;;;12.30;99.90;;;;;;490255;242;28440;-69
2022/09/16 05:47:47;;;;;;;3.40;3.20;;;12.40;99.90;;;;;;490175;242;28927;-72
2022/09/16 05:49:53;;;;;;;3.10;2.80;;;12.40;99.90;;;;;;490271;242;28524;-69
2022/09/16 05:51:50;;;;;;;2.80;2.60;;;12.40;99.90;;;;;;489998;242;28530;-70
2022/09/16 05:53:51;;;;;;;3.17;2.90;;;12.40;99.90;;;;;;490195;242;28726;-68
2022/09/16 05:55:52;;;;;;;3.47;2.93;;;12.40;99.90;;;;;;490276;242;28501;-69
2022/09/16 05:57:54;;;;;;;2.90;2.80;;;12.40;99.90;;;;;;490167;242;28462;-71
2022/09/16 05:59:55;;;;;;;3.20;3.00;;;12.30;99.90;;;;;;490305;242;28400;-68
2022/09/16 06:01:56;;;;;;;2.97;2.77;;;12.30;99.90;;;;;;490329;242;28082;-69
2022/09/16 06:03:57;;;;;;;3.13;2.90;;;12.40;99.90;;;;;;490267;242;28857;-69
2022/09/16 06:06:00;;;;;;;2.70;2.60;;;;;;;;;;490289;242;28098;-71
2022/09/16 06:08:02;;;;;;;3.30;3.07;;;12.30;99.90;;;;;;490282;242;27506;-69
2022/09/16 06:10:02;;;;;;;3.20;3.00;;;12.40;99.90;;;;;;490214;242;28224;-69
2022/09/16 06:12:03;;;;;;;3.13;2.93;;;12.40;99.90;;;;;;490303;242;28041;-69
2022/09/16 06:14:05;;;;;;;2.97;2.77;;;12.50;99.90;;;;;;490155;241;28173;-69
2022/09/16 06:16:06;;;;;;;3.20;3.00;;;12.60;99.90;;;;;;490244;242;28355;-74
2022/09/16 06:18:07;;;;;;;3.33;3.03;;;12.60;99.90;;;;;;490289;242;28134;-69
2022/09/16 06:20:12;;;;;;;2.97;2.77;;;12.70;99.90;;;;;;490228;242;28527;-69
2022/09/16 06:22:10;;;;;;;2.97;2.77;;;12.70;99.90;;;;;;481655;242;28704;-69
2022/09/16 06:24:11;;;;;;;4.33;2.80;;;12.80;99.90;;;;;;473694;251;28740;-69
2022/09/16 06:26:12;;;;;;;2.87;2.67;;;12.80;99.90;;;;;;480248;247;29065;-71
2022/09/16 06:28:14;;;;;;;3.43;3.23;;;12.80;99.90;;;;;;480508;247;28966;-68
2022/09/16 06:30:15;;;;;;;3.17;2.87;;;12.80;99.90;;;;;;480490;247;28651;-69
2022/09/16 06:32:16;;;;;;;3.10;2.90;;;12.80;99.90;;;;;;480553;241;28471;-69
2022/09/16 06:34:17;;;;;;;3.10;2.90;;;12.90;99.90;;;;;;480618;241;28365;-69
2022/09/16 06:36:19;;;;;;;2.80;2.60;;;12.90;99.90;;;;;;480401;247;28330;-70
2022/09/16 06:38:20;;;;;;;2.93;2.73;;;12.90;99.90;;;;;;480446;247;28730;-69
2022/09/16 06:40:21;;;;;;;3.10;2.83;;;13.00;99.90;;;;;;480445;247;28769;-69
2022/09/16 06:42:24;;;;;;;2.30;2.20;;;;;;;;;;480226;247;28905;-69
2022/09/16 06:44:25;;;;;;;2.57;2.37;;;13.00;99.90;;;;;;480434;247;26531;-70
2022/09/16 06:46:26;;;;;;;2.63;2.43;;;13.10;99.90;;;;;;480453;247;28730;-69
2022/09/16 06:48:27;;;;;;;2.50;2.40;;;13.00;99.90;;;;;;480318;246;28879;-70
2022/09/16 06:50:29;;;;;;;2.70;2.50;;;13.00;99.90;;;;;;483083;246;28731;-72
2022/09/16 06:52:30;;;;;;;2.67;2.47;;;13.00;99.90;;;;;;483239;246;28227;-70
2022/09/16 06:54:31;;;;;;;4.27;2.50;;;13.10;99.90;;;;;;483232;245;28227;-71
2022/09/16 06:56:37;;;;;;;2.90;2.60;;;13.00;99.90;;;;;;483143;245;28089;-69
2022/09/16 06:58:34;;;;;;;2.87;2.67;;;12.90;99.90;;;;;;482982;246;28304;-69
2022/09/16 07:00:35;;;;;;;2.63;2.43;;;12.90;99.90;;;;;;483238;245;28239;-72
2022/09/16 07:02:37;;;;;;;2.70;2.50;;;13.00;99.90;;;;;;483157;245;28327;-69
2022/09/16 07:04:37;;;;;;;3.20;2.90;;;13.00;99.90;;;;;;483212;245;28462;-70
2022/09/16 07:06:39;;;;;;;2.90;2.70;;;13.00;99.90;;;;;;483142;245;28876;-69
2022/09/16 07:08:40;;;;;;;2.50;2.40;;;13.10;99.90;;;;;;480772;242;28621;-69
2022/09/16 07:10:41;;;;;;;4.50;2.83;;;13.10;99.90;;;;;;480490;247;28700;-70
2022/09/16 07:12:42;;;;;;;3.00;2.80;;;13.10;99.90;;;;;;480479;247;28266;-69
2022/09/16 07:14:44;;;;;;;2.60;2.40;;;13.10;99.90;;;;;;480430;247;28215;-69
2022/09/16 07:16:45;;;;;;;2.70;2.50;;;13.00;99.90;;;;;;480429;247;28432;-69
2022/09/16 07:18:47;;;;;;;2.77;2.57;;;13.00;99.90;;;;;;480475;247;28204;-69
2022/09/16 07:20:47;;;;;;;2.67;2.47;;;13.00;99.90;;;;;;480419;247;28154;-72
2022/09/16 07:22:52;;;;;;;3.57;2.40;;;13.00;99.90;;;;;;480503;247;28276;-69
2022/09/16 07:24:50;;;;;;;2.80;2.60;;;13.00;99.90;;;;;;480225;247;28347;-70
2022/09/16 07:26:51;;;;;;;2.23;2.13;;;13.00;99.90;;;;;;480319;247;28345;-69
2022/09/16 07:28:53;;;;;;;2.63;2.43;;;13.00;99.90;;;;;;480451;247;28341;-69
2022/09/16 07:30:54;;;;;;;3.20;2.63;;;13.10;99.90;;;;;;480482;247;28574;-70
2022/09/16 07:32:55;;;;;;;2.30;2.10;;;13.20;99.90;;;;;;480402;247;28191;-69
2022/09/16 07:34:56;;;;;;;3.43;2.73;;;13.30;99.90;;;;;;480440;247;28287;-69
2022/09/16 07:36:59;;;;;;;2.27;2.10;;;;;;;;;;480417;247;28264;-70
2022/09/16 07:39:00;;;;;;;2.50;2.30;;;13.40;99.90;;;;;;480431;247;27658;-70
2022/09/16 07:41:01;;;;;;;3.60;2.20;;;13.40;99.90;;;;;;480466;247;28306;-69
2022/09/16 07:43:03;;;;;;;2.70;2.07;;;13.40;99.90;;;;;;480433;247;28286;-69
2022/09/16 07:45:05;;;;;;;3.30;2.40;;;13.50;99.90;;;;;;480377;247;28302;-72
2022/09/16 07:47:06;;;;;;;4.70;2.37;;;13.50;99.90;;;;;;480456;247;28198;-70
2022/09/16 07:49:08;;;;;;;3.33;2.50;;;13.40;99.90;;;;;;480416;247;28514;-69
2022/09/16 07:51:09;;;;;;;4.97;2.67;;;13.40;99.90;;;;;;480420;247;28671;-69
2022/09/16 07:53:10;;;;;;;2.80;2.60;;;13.40;99.90;;;;;;480517;247;28804;-73
2022/09/16 07:55:11;;;;;;;2.80;2.60;;;13.40;99.90;;;;;;480454;247;28802;-69
2022/09/16 07:57:13;;;;;;;3.10;2.40;;;13.50;99.90;;;;;;480381;247;28408;-70
2022/09/16 07:59:14;;;;;;;5.43;2.40;;;13.40;99.90;;;;;;480490;247;28347;-69
2022/09/16 08:01:15;;;;;;;3.63;2.70;;;13.50;99.90;;;;;;480437;247;28616;-69
2022/09/16 08:03:16;;;;;;;2.40;2.20;;;13.50;99.90;;;;;;480469;247;28454;-71
2022/09/16 08:05:18;;;;;;;2.50;2.30;;;13.60;99.90;;;;;;480490;247;29068;-69
2022/09/16 08:07:19;;;;;;;2.43;2.30;;;13.60;99.90;;;;;;480368;247;29327;-69
2022/09/16 08:09:21;;;;;;;3.73;2.50;;;13.60;99.90;;;;;;480432;247;28801;-69
2022/09/16 08:11:21;;;;;;;6.97;2.20;;;13.60;99.90;;;;;;480419;241;28496;-69
2022/09/16 08:13:23;;;;;;;3.03;2.07;;;13.50;99.90;;;;;;480367;247;28231;-71
2022/09/16 08:15:24;;;;;;;2.27;2.10;;;13.60;99.90;;;;;;480430;247;28605;-68
2022/09/16 08:17:25;;;;;;;3.77;2.63;;;13.50;99.90;;;;;;480354;247;28570;-69
2022/09/16 08:19:27;;;;;;;2.67;2.10;;;13.50;99.90;;;;;;480406;247;29680;-70
2022/09/16 08:21:28;;;;;;;2.20;2.10;;;13.50;99.90;;;;;;480455;247;29233;-69
2022/09/16 08:23:30;;;;;;;2.73;2.30;;;13.60;99.90;;;;;;480423;247;29088;-69
2022/09/16 08:25:30;;;;;;;2.50;2.30;;;13.70;99.90;;;;;;480353;247;28470;-69
2022/09/16 08:27:32;;;;;;;3.23;2.23;;;13.60;99.90;;;;;;480389;247;28556;-69
2022/09/16 08:29:33;;;;;;;2.50;2.10;;;13.40;99.90;;;;;;480472;247;28352;-69
2022/09/16 08:31:34;;;;;;;2.00;1.90;;;13.50;99.90;;;;;;480447;247;28334;-68
2022/09/16 08:33:35;;;;;;;2.13;2.00;;;13.60;99.90;;;;;;480526;247;28618;-70
2022/09/16 08:35:37;;;;;;;2.60;2.40;;;13.60;99.90;;;;;;480485;247;28355;-69
2022/09/16 08:37:38;;;;;;;2.40;2.17;;;13.40;99.90;;;;;;480331;247;28421;-69
2022/09/16 08:39:39;;;;;;;3.30;1.97;;;13.40;99.90;;;;;;480476;247;28121;-72
2022/09/16 08:41:40;;;;;;;4.53;2.17;;;13.50;99.90;;;;;;480721;236;28653;-68
2022/09/16 08:43:42;;;;;;;3.20;2.10;;;13.40;99.90;;;;;;478148;248;28849;-69
2022/09/16 08:45:43;;;;;;;2.60;2.20;;;13.50;99.90;;;;;;486965;244;28832;-70
2022/09/16 08:47:44;;;;;;;2.23;2.03;;;13.50;99.90;;;;;;486677;244;28575;-69
2022/09/16 08:49:45;;;;;;;1.90;1.80;;;13.70;99.90;;;;;;486733;244;28400;-72
2022/09/16 08:51:47;;;;;;;1.83;1.73;;;13.70;99.90;;;;;;485907;243;28368;-69
2022/09/16 08:53:48;;;;;;;3.03;2.27;;;13.70;99.90;;;;;;479633;248;28305;-70
2022/09/16 08:55:49;;;;;;;2.20;1.90;;;13.70;99.90;;;;;;491938;242;28335;-69
2022/09/16 08:57:50;;;;;;;1.90;1.80;;;13.80;99.90;;;;;;493421;241;28409;-69
2022/09/16 08:59:52;;;;;;;2.33;2.03;;;13.90;99.90;;;;;;480065;244;28824;-72
2022/09/16 09:01:53;;;;;;;2.27;2.10;;;13.90;99.90;;;;;;492028;242;28179;-69
2022/09/16 09:03:54;;;;;;;2.33;1.87;;;13.90;99.90;;;;;;493472;241;28817;-69
2022/09/16 09:05:55;;;;;;;2.70;2.30;;;13.90;99.90;;;;;;480020;244;29317;-69
2022/09/16 09:07:57;;;;;;;2.67;1.70;;;14.00;99.90;;;;;;491940;242;29255;-70
2022/09/16 09:09:58;;;;;;;2.13;1.90;;;14.00;99.90;;;;;;491564;241;29331;-71
2022/09/16 09:11:59;;;;;;;1.70;1.60;;;14.10;99.90;;;;;;492955;240;28805;-69
2022/09/16 09:14:01;;;;;;;2.40;1.97;;;14.30;99.90;;;;;;492915;240;28930;-69
2022/09/16 09:16:02;;;;;;;3.03;2.13;;;14.40;99.90;;;;;;492884;240;28742;-69
2022/09/16 09:18:03;;;;;;;3.73;2.47;;;14.50;99.90;;;;;;492912;240;28858;-69
2022/09/16 09:20:05;;;;;;;2.10;1.90;;;14.50;99.90;;;;;;492939;240;29226;-72
2022/09/16 09:22:05;;;;;;;2.30;2.00;;;14.40;99.90;;;;;;492854;241;29234;-69
2022/09/16 09:24:07;;;;;;;3.73;1.80;;;14.30;99.90;;;;;;490103;242;29326;-70
2022/09/16 09:26:08;;;;;;;2.33;2.00;;;14.30;99.90;;;;;;479875;248;28748;-69
2022/09/16 09:28:09;;;;;;;3.00;2.15;;;14.50;99.90;;;;;;488055;243;36525;-70
2022/09/16 09:30:11;;;;;;;2.10;1.67;;;14.60;99.90;;;;;;480064;244;28008;-71
2022/09/16 09:32:12;;;;;;;1.83;1.73;;;14.70;99.90;;;;;;489207;242;28719;-69
2022/09/16 09:34:13;;;;;;;2.20;1.77;;;14.60;99.90;;;;;;487291;240;28810;-69
2022/09/16 09:36:14;;;;;;;2.67;2.10;;;14.50;99.90;;;;;;494521;239;29701;-71
2022/09/16 09:38:16;;;;;;;2.67;2.23;;;14.50;99.90;;;;;;488627;239;29313;-69
2022/09/16 09:40:17;;;;;;;1.87;1.63;;;14.50;99.90;;;;;;497282;239;29370;-72
2022/09/16 09:42:20;;;;;;;2.20;2.00;;;14.40;99.90;;;;;;497962;239;28712;-69
2022/09/16 09:44:19;;;;;;;1.97;1.60;;;14.30;99.90;;;;;;495798;240;28846;-70
2022/09/16 09:46:22;;;;;;;3.10;1.77;;;14.30;99.90;;;;;;492437;239;29088;-69
2022/09/16 09:48:22;;;;;;;5.30;1.60;;;14.40;99.90;;;;;;490292;240;28797;-69
2022/09/16 09:50:23;;;;;;;2.30;1.70;;;14.50;99.90;;;;;;495654;240;28855;-69
2022/09/16 09:52:25;;;;;;;6.10;1.90;;;14.50;99.90;;;;;;495748;240;28830;-68
2022/09/16 09:54:26;;;;;;;2.70;1.90;;;14.60;99.90;;;;;;495955;240;28887;-69
2022/09/16 09:56:27;;;;;;;2.13;1.50;;;14.50;99.90;;;;;;486281;240;28995;-72
2022/09/16 09:58:28;;;;;;;2.57;1.60;;;14.50;99.90;;;;;;483996;245;28854;-70
2022/09/16 10:00:29;;;;;;;1.77;1.53;;;14.30;99.90;;;;;;483979;245;29372;-69
2022/09/16 10:02:31;;;;;;;1.80;1.70;;;14.30;99.90;;;;;;483818;245;29333;-73
2022/09/16 10:04:32;;;;;;;2.27;1.50;;;14.60;99.90;;;;;;488437;241;29245;-69
2022/09/16 10:06:33;;;;;;;1.70;1.50;;;14.90;99.90;;;;;;493560;241;28847;-72
2022/09/16 10:08:34;;;;;;;2.90;1.40;;;15.00;99.90;;;;;;493595;241;28785;-69
2022/09/16 10:10:36;;;;;;;2.00;1.60;;;15.00;99.90;;;;;;493758;241;28744;-70
2022/09/16 10:12:37;;;;;;;2.80;1.60;;;15.20;99.90;;;;;;483502;245;28731;-69
2022/09/16 10:14:38;;;;;;;1.90;1.70;;;15.00;99.90;;;;;;494102;240;28711;-70
2022/09/16 10:16:39;;;;;;;1.43;1.33;;;14.80;99.90;;;;;;486873;244;28883;-72
2022/09/16 10:18:41;;;;;;;2.30;1.60;;;14.90;99.90;;;;;;488030;243;28855;-69
2022/09/16 10:20:42;;;;;;;3.13;1.50;;;15.00;99.90;;;;;;488015;243;28896;-70
2022/09/16 10:22:43;;;;;;;2.57;1.80;;;15.00;99.90;;;;;;488051;243;28980;-68
2022/09/16 10:24:53;;;;;;;2.00;1.77;;;15.10;99.90;;;;;;487941;243;29360;-70
2022/09/16 10:26:46;;;;;;;2.30;1.90;;;14.90;99.90;;;;;;487055;243;29462;-71
2022/09/16 10:28:47;;;;;;;3.67;2.00;;;14.70;99.90;;;;;;488109;243;29384;-69
2022/09/16 10:30:48;;;;;;;2.17;1.73;;;14.60;99.90;;;;;;488075;243;29365;-69
2022/09/16 10:32:49;;;;;;;3.67;1.87;;;14.70;99.90;;;;;;488080;243;28830;-70
2022/09/16 10:34:51;;;;;;;1.80;1.70;;;14.60;99.90;;;;;;488106;243;28919;-70